Latest Coastal Weather Observations for Port Macquarie Airport

IDN60701

Issued at 1:22 am EST Thursday 29 September 2016 (issued every 10 minutes, with the page automatically refreshed every 10 minutes)

About coastal observations | Map of coastal stations | Coastal observations for NSW | Marine services | Other Formats
Station Details ID: 060139 Name: PORT MACQUARIE AIRPORT AWS Lat: -31.43 Lon: 152.87 Height: 4.2 m
Data from the previous 72 hours. | See also: Recent months at Port Macquarie Airport
Date/Time
EST
Temp
°C
Wind Pressure Rain since
9am
mm
Weather Cloud Vis
km
Sea
Height
m
Swell
Dir  Spd
kts
Gust
kts
hPa Trend Height
m
Period
s
Dir
29/01:00am 12.2 N 6 8 1009.8 - 0.0 - - 10 - - - -
29/12:30am 8.8 WNW 1 3 1010.3 - 0.0 - - 10 - - - -
29/12:00am 9.4 CALM 0 0 1010.8 - 0.0 - - 10 - - - -
 
Date/Time
EST
Temp
°C
Wind Pressure Rain since
9am
mm
Weather Cloud Vis
km
Sea
Height
m
Swell
Dir  Spd
kts
Gust
kts
hPa Trend Height
m
Period
s
Dir
28/11:30pm 9.4 NW 2 4 1011.2 - 0.0 - - 10 - - - -
28/11:00pm 9.8 CALM 0 0 1011.5 - 0.0 - - 10 - - - -
28/10:30pm 9.9 CALM 0 0 1011.5 - 0.0 - - 10 - - - -
28/10:00pm 9.9 CALM 0 0 1011.9 - 0.0 - - 10 - - - -
28/09:30pm 10.6 CALM 0 0 1011.9 - 0.0 - - 10 - - - -
28/09:00pm 10.9 CALM 0 0 1012.1 - 0.0 - - 10 - - - -
28/08:30pm 11.4 CALM 0 0 1012.0 - 0.0 - - 10 - - - -
28/08:00pm 12.0 CALM 0 0 1012.0 - 0.0 - Partly cloudy 10 - - - -
28/07:30pm 13.2 CALM 0 0 1012.0 - 0.0 - Partly cloudy 10 - - - -
28/07:00pm 15.1 N 3 3 1012.2 - 0.0 - Partly cloudy 10 - - - -
28/06:30pm 15.3 N 4 6 1012.1 - 0.0 - Partly cloudy 10 - - - -
28/06:00pm 17.0 ENE 5 6 1011.6 - 0.0 - - 10 - - - -
28/05:30pm 18.3 E 6 9 1011.3 - 0.0 - - 10 - - - -
28/05:00pm 18.9 E 9 11 1010.9 - 0.0 - - 10 - - - -
28/04:30pm 19.4 E 9 13 1011.0 - 0.0 - - 10 - - - -
28/04:00pm 19.7 E 9 13 1011.1 - 0.0 - - 10 - - - -
28/03:30pm 20.3 ESE 10 13 1011.2 - 0.0 - - 10 - - - -
28/03:00pm 20.4 SE 10 13 1011.4 - 0.0 - - 10 - - - -
28/02:30pm 20.3 SE 11 15 1011.7 - 0.0 - - 10 - - - -
28/02:00pm 20.4 SE 11 16 1011.8 - 0.0 - - 10 - - - -
28/01:30pm 21.4 SE 10 15 1012.1 - 0.0 - - 10 - - - -
28/01:00pm 21.2 SE 9 12 1012.5 - 0.0 - - 10 - - - -
28/12:30pm 21.5 NE 8 11 1012.8 - 0.0 - - 10 - - - -
28/12:00pm 21.3 NE 7 12 1012.9 - 0.0 - Mostly clear 10 - - - -
28/11:30am 20.8 ESE 6 10 1013.3 - 0.0 - - 10 - - - -
28/11:00am 20.4 SSE 6 10 1013.8 - 0.0 - - 10 - - - -
28/10:30am 19.7 SSW 6 12 1014.0 - 0.0 - - 10 - - - -
28/10:00am 19.5 W 6 9 1014.1 - 0.0 - - 10 - - - -
28/09:30am 18.8 W 8 12 1014.3 - 0.0 - - 10 - - - -
28/09:00am 18.3 W 8 11 1014.3 - 0.0 - - 10 - - - -
28/08:30am 16.6 WSW 9 13 1014.4 - 0.0 - - 10 - - - -
28/08:00am 16.1 WSW 8 12 1014.3 - 0.0 - - 10 - - - -
28/07:30am 15.0 W 7 9 1014.0 - 0.0 - - 10 - - - -
28/07:00am 13.2 W 8 10 1014.0 - 0.0 - - 10 - - - -
28/06:30am 12.0 W 8 11 1014.0 - 0.0 - - 10 - - - -
28/06:00am 10.1 W 8 9 1013.8 - 0.0 - - 10 - - - -
28/05:30am 7.0 W 5 7 1013.4 - 0.0 - - 10 - - - -
28/05:00am 7.2 NNW 2 3 1012.9 - 0.0 - - 10 - - - -
28/04:30am 7.7 NW 3 5 1012.8 - 0.0 - - 10 - - - -
28/04:00am 8.8 WSW 6 6 1012.6 - 0.0 - - 10 - - - -
28/03:30am 9.1 WSW 2 4 1012.3 - 0.0 - - 10 - - - -
28/03:00am 9.7 SW 6 7 1012.1 - 0.0 - - 10 - - - -
28/02:30am 10.9 SSW 6 7 1012.2 - 0.0 - - 10 - - - -
28/02:00am 12.3 SW 9 10 1011.9 - 0.0 - - 10 - - - -
28/01:30am 10.6 SW 7 8 1011.9 - 0.0 - - 10 - - - -
28/01:00am 10.5 SW 8 10 1011.8 - 0.0 - - 10 - - - -
28/12:30am 10.0 SSW 1 5 1011.8 - 0.0 - - 10 - - - -
28/12:00am 12.3 SW 6 7 1011.5 - 0.0 - - 10 - - - -
 
Date/Time
EST
Temp
°C
Wind Pressure Rain since
9am
mm
Weather Cloud Vis
km
Sea
Height
m
Swell
Dir  Spd
kts
Gust
kts
hPa Trend Height
m
Period
s
Dir
27/11:30pm 13.1 SW 6 7 1011.5 - 0.0 - - 10 - - - -
27/11:00pm 15.6 WSW 4 6 1011.4 - 0.0 - - 10 - - - -
27/10:30pm 16.5 SW 8 11 1011.0 - 0.0 - - 10 - - - -
27/10:00pm 17.8 SW 12 16 1010.7 - 0.0 - - 10 - - - -
27/09:30pm 17.8 WSW 11 15 1010.6 - 0.0 - - 10 - - - -
27/09:00pm 18.0 SW 10 15 1010.5 - 0.0 - - 10 - - - -
27/08:30pm 18.2 SW 9 12 1010.0 - 0.0 - - 10 - - - -
27/08:00pm 16.6 SW 6 7 1009.5 - 0.0 - Partly cloudy 10 - - - -
27/07:30pm 19.6 W 6 7 1009.0 - 0.0 - - 10 - - - -
27/07:00pm 20.6 W 7 13 1008.6 - 0.0 - Partly cloudy 10 - - - -
27/06:30pm 21.0 W 8 10 1008.1 - 0.0 - Partly cloudy 10 - - - -
27/06:00pm 20.8 W 6 8 1007.6 - 0.0 - - 10 - - - -
27/05:30pm 22.4 W 9 13 1007.1 - 0.0 - - 10 - - - -
27/05:00pm 23.0 WNW 11 20 1006.8 - 0.0 - Partly cloudy 10 - - - -
27/04:30pm 22.9 WNW 7 13 1006.6 - 0.0 - Partly cloudy 10 - - - -
27/04:00pm 23.2 W 8 14 1006.7 - 0.0 - Partly cloudy 10 - - - -
27/03:30pm 23.4 W 11 15 1006.6 - 0.0 - Partly cloudy 10 - - - -
27/03:00pm 24.4 W 13 21 1007.0 - 0.0 - Partly cloudy 10 - - - -
27/02:30pm 24.3 W 9 15 1007.1 - 0.0 - Partly cloudy 10 - - - -
27/02:00pm 23.1 NNE 11 16 1007.6 - 0.0 - Partly cloudy 10 - - - -
27/01:30pm 22.6 NNE 8 12 1007.6 - 0.0 - Partly cloudy 10 - - - -
27/01:00pm 24.2 N 10 16 1008.1 - 0.0 - - 10 - - - -
27/12:30pm 23.4 N 9 13 1008.7 - 0.0 - - 10 - - - -
27/12:00pm 23.2 NNW 9 14 1009.4 - 0.0 - - 10 - - - -
27/11:30am 23.4 NW 7 11 1010.1 - 0.0 - - 10 - - - -
27/11:00am 22.6 W 9 14 1010.9 - 0.0 - - 10 - - - -
27/10:30am 22.1 W 8 13 1011.4 - 0.0 - - 10 - - - -
27/10:00am 20.2 W 8 11 1012.2 - 0.0 - - 10 - - - -
27/09:30am 19.4 WNW 7 11 1012.5 - 0.0 - - 10 - - - -
27/09:00am 18.0 W 9 14 1012.9 - 0.0 - - 10 - - - -
27/08:30am 17.6 WNW 9 13 1013.0 - 0.0 - - 10 - - - -
27/08:00am 16.1 WNW 8 12 1013.3 - 0.0 - - 10 - - - -
27/07:30am 14.7 WNW 8 11 1013.6 - 0.0 - - 10 - - - -
27/07:00am 13.4 W 7 12 1013.5 - 0.0 - - 10 - - - -
27/06:30am 12.1 W 6 7 1013.3 - 0.0 - - 10 - - - -
27/06:00am 10.1 W 6 7 1013.2 - 0.0 - - 10 - - - -
27/05:30am 9.6 WNW 7 8 1013.0 - 0.0 - - 10 - - - -
27/05:00am 9.9 WNW 6 8 1012.7 - 0.0 - - 10 - - - -
27/04:30am 6.3 W 5 7 1012.5 - 0.0 - - 10 - - - -
27/04:00am 7.3 WNW 2 6 1012.3 - 0.0 - - 10 - - - -
27/03:30am 7.4 CALM 0 0 1012.2 - 0.0 - - 10 - - - -
27/03:00am 9.5 SW 3 5 1012.0 - 0.0 - - 10 - - - -
27/02:30am 12.0 W 8 9 1011.9 - 0.0 - - 10 - - - -
27/02:00am 12.4 W 7 9 1012.0 - 0.0 - - 10 - - - -
27/01:30am 11.2 W 6 10 1011.9 - 0.0 - - 10 - - - -
27/01:00am 9.0 NW 1 4 1012.2 - 0.0 - - 10 - - - -
27/12:30am 9.3 W 4 5 1012.1 - 0.0 - - 10 - - - -
27/12:00am 10.9 NW 4 5 1012.2 - 0.0 - - 10 - - - -
 
Date/Time
EST
Temp
°C
Wind Pressure Rain since
9am
mm
Weather Cloud Vis
km
Sea
Height
m
Swell
Dir  Spd
kts
Gust
kts
hPa Trend Height
m
Period
s
Dir
26/11:30pm 11.6 CALM 0 3 1012.0 - 0.0 - - 10 - - - -
26/11:00pm 11.0 NW 4 6 1011.7 - 0.0 - - 10 - - - -
26/10:30pm 9.7 WNW 1 4 1011.9 - 0.0 - - 10 - - - -
26/10:00pm 10.4 WSW 3 5 1011.9 - 0.0 - - 10 - - - -
26/09:30pm 11.9 NNW 3 4 1012.2 - 0.0 - - 10 - - - -
26/09:00pm 11.7 CALM 0 0 1012.3 - 0.0 - Mostly clear 10 - - - -
26/08:30pm 12.0 CALM 0 0 1011.9 - 0.0 - - 10 - - - -
26/08:00pm 12.3 CALM 0 0 1011.4 - 0.0 - - 10 - - - -
26/07:30pm 12.7 CALM 0 0 1010.9 - 0.0 - - 10 - - - -
26/07:00pm 13.7 CALM 0 0 1010.6 - 0.0 - - 10 - - - -
26/06:30pm 15.0 NNW 2 4 1010.2 - 0.0 - - 10 - - - -
26/06:00pm 17.4 NE 3 4 1009.7 - 0.0 - - 10 - - - -
26/05:30pm 19.1 NE 5 7 1009.5 - 0.0 - - 10 - - - -
26/05:00pm 19.8 E 5 8 1009.2 - 0.0 - - 10 - - - -
26/04:30pm 20.3 ESE 6 10 1008.9 - 0.0 - - 10 - - - -
26/04:00pm 20.8 ESE 7 9 1008.8 - 0.0 - - 10 - - - -
26/03:30pm 21.4 ESE 8 11 1008.6 - 0.0 - - 10 - - - -
26/03:00pm 21.0 ESE 10 13 1008.7 - 0.0 - - 10 - - - -
26/02:30pm 21.3 SE 9 12 1008.9 - 0.0 - - 10 - - - -
26/02:00pm 21.8 SE 10 15 1009.1 - 0.0 - - 10 - - - -
26/01:30pm 21.8 SE 9 14 1009.3 - 0.0 - - 10 - - - -
26/01:00pm 21.4 SE 9 12 1009.9 - 0.0 - - 10 - - - -
26/12:30pm 21.5 SE 10 13 1010.3 - 0.0 - - 10 - - - -
26/12:00pm 22.4 SE 11 14 1010.7 - 0.0 - - 10 - - - -
26/11:30am 22.7 S 7 11 1010.9 - 0.0 - - 10 - - - -
26/11:00am 22.3 SW 7 12 1011.2 - 0.0 - - 10 - - - -
26/10:30am 21.7 SSW 8 12 1011.4 - 0.0 - - 10 - - - -
26/10:00am 21.4 SW 9 17 1011.9 - 0.0 - - 10 - - - -
26/09:30am 20.2 WSW 9 13 1012.0 - 0.0 - - 10 - - - -
26/09:00am 19.8 SW 12 16 1012.4 - 0.0 - - 10 - - - -
26/08:30am 19.0 WSW 8 12 1012.6 - 0.0 - - 10 - - - -
26/08:00am 17.9 W 6 8 1012.7 - 0.0 - - 10 - - - -
26/07:30am 17.2 W 7 9 1012.5 - 0.0 - - 10 - - - -
26/07:00am 15.6 W 7 11 1012.4 - 0.0 - - 10 - - - -
26/06:30am 14.5 W 7 10 1012.1 - 0.0 - - 10 - - - -
26/06:00am 10.7 WSW 4 6 1011.9 - 0.0 - - 10 - - - -
26/05:30am 10.9 WSW 4 7 1011.7 - 0.0 - - 10 - - - -
26/05:00am 11.3 SSW 5 7 1011.5 - 0.0 - - 10 - - - -
26/04:30am 11.4 WSW 4 7 1011.1 - 0.0 - - 10 - - - -
26/04:00am 13.0 W 6 8 1010.7 - 0.0 - - 10 - - - -
26/03:30am 12.0 W 1 4 1010.4 - 0.0 - - 10 - - - -
26/03:00am 14.0 W 7 9 1010.4 - 0.0 - - 10 - - - -
26/02:30am 14.5 W 7 9 1010.2 - 0.0 - - 10 - - - -
26/02:00am 14.3 W 7 9 1010.2 - 0.0 - Partly cloudy 10 - - - -
26/01:30am 14.6 W 6 8 1010.4 - 0.0 - Cloudy 10 - - - -

Other Formats:

Comma delimited format used in spreadsheet applications
http://www.bom.gov.au/fwo/IDN60701/IDN60701.94786.axf

JavaScript Object Notation format (JSON) in row-major order
http://www.bom.gov.au/fwo/IDN60701/IDN60701.94786.json